Time;durP1;ratioP1;P1;durP2;ratioP2;P2;SDS_P1;SDS_P2;PMS_P1;PMS_P2;Temp;Humidity;BMP_temperature;BMP_pressure;BME280_temperature;BME280_humidity;BME280_pressure;Samples;Min_cycle;Max_cycle;Signal;HPM_P1;HPM_P2
2022/02/23 00:00:56;;;;;;;8.78;6.47;;;;;;;4.39;62.62;99863.39;1702587;82;21043;-62
2022/02/23 00:03:22;;;;;;;9.35;7.67;;;;;;;4.36;62.68;99863.73;1683932;83;21153;-61
2022/02/23 00:05:48;;;;;;;8.75;6.78;;;;;;;4.32;62.85;99861.90;1683470;83;21503;-64
2022/02/23 00:08:15;;;;;;;11.15;7.47;;;;;;;4.28;62.99;99848.20;1686824;83;21545;-62
2022/02/23 00:10:41;;;;;;;8.65;7.62;;;;;;;4.25;63.14;99851.14;1684153;83;21090;-64
2022/02/23 00:13:07;;;;;;;9.20;7.45;;;;;;;4.25;63.22;99851.64;1696124;82;21091;-61
2022/02/23 00:15:35;;;;;;;8.90;7.30;;;;;;;4.25;63.39;99850.33;1696445;82;21567;-62
2022/02/23 00:18:01;;;;;;;9.85;7.92;;;;;;;4.21;63.49;99849.00;1690120;84;21483;-61
2022/02/23 00:20:27;;;;;;;12.37;8.40;;;;;;;4.16;63.61;99848.13;1697017;84;21125;-63
2022/02/23 00:22:54;;;;;;;10.97;8.03;;;;;;;4.15;63.88;99849.14;1693851;83;21005;-63
2022/02/23 00:25:21;;;;;;;14.10;8.45;;;;;;;4.15;63.92;99850.45;1712977;83;21165;-61
2022/02/23 00:27:48;;;;;;;9.60;8.53;;;;;;;4.14;64.23;99856.70;1706617;83;21019;-66
2022/02/23 00:30:15;;;;;;;13.08;8.58;;;;;;;4.10;64.48;99852.73;1702778;83;21097;-63
2022/02/23 00:32:41;;;;;;;12.45;8.68;;;;;;;4.13;64.55;99856.39;1712358;83;21066;-62
2022/02/23 00:35:08;;;;;;;15.68;10.25;;;;;;;4.22;64.51;99854.59;1741865;80;20988;-62
2022/02/23 00:37:35;;;;;;;13.37;8.80;;;;;;;4.32;64.36;99853.16;1744243;81;21058;-62
2022/02/23 00:40:01;;;;;;;13.30;10.18;;;;;;;4.38;64.35;99857.80;1743567;81;21068;-62
2022/02/23 00:42:27;;;;;;;12.55;9.58;;;;;;;4.39;64.37;99855.48;1749636;81;21109;-62
2022/02/23 00:44:53;;;;;;;13.35;10.80;;;;;;;4.40;64.40;99855.32;1731857;81;21034;-61
2022/02/23 00:47:19;;;;;;;13.58;9.55;;;;;;;4.42;64.48;99854.66;1687478;84;21046;-62
2022/02/23 00:49:47;;;;;;;16.25;10.53;;;;;;;4.47;64.41;99854.20;1685368;84;21575;-62
2022/02/23 00:52:14;;;;;;;11.90;9.37;;;;;;;4.49;64.35;99855.68;1688269;84;21110;-62
2022/02/23 00:54:41;;;;;;;14.97;10.47;;;;;;;4.47;64.28;99851.06;1686288;84;21078;-62
2022/02/23 00:57:09;;;;;;;13.25;9.10;;;;;;;4.42;64.32;99859.13;1688319;84;21008;-62
2022/02/23 00:59:36;;;;;;;13.67;10.47;;;;;;;4.38;64.47;99861.25;1686869;84;21484;-62
2022/02/23 01:02:03;;;;;;;18.47;12.63;;;;;;;4.40;64.55;99867.20;1730262;82;21058;-64
2022/02/23 01:04:29;;;;;;;13.67;11.50;;;;;;;4.42;64.47;99865.22;1726344;82;21030;-61
2022/02/23 01:06:55;;;;;;;15.65;10.48;;;;;;;4.46;64.57;99860.45;1731972;81;21082;-62
2022/02/23 01:09:22;;;;;;;13.48;10.70;;;;;;;4.48;64.51;99871.20;1729980;82;20982;-62
2022/02/23 01:11:48;;;;;;;11.65;9.70;;;;;;;4.51;64.55;99869.22;1731533;82;21632;-62
2022/02/23 01:14:14;;;;;;;11.88;9.43;;;;;;;4.52;64.52;99874.34;1718740;82;20975;-61
2022/02/23 01:16:41;;;;;;;12.63;10.37;;;;;;;4.54;64.44;99876.80;1668830;85;21055;-62
2022/02/23 01:19:07;;;;;;;14.33;9.80;;;;;;;4.56;64.51;99886.70;1718736;82;21061;-63
2022/02/23 01:21:33;;;;;;;13.80;9.90;;;;;;;4.61;64.44;99878.64;1702349;82;21037;-62
2022/02/23 01:24:00;;;;;;;12.03;9.50;;;;;;;4.68;64.31;99883.61;1708848;82;21094;-61
2022/02/23 01:26:27;;;;;;;14.83;9.40;;;;;;;4.73;64.31;99885.78;1696758;83;21038;-62
2022/02/23 01:28:53;;;;;;;;;;;;;;;4.75;64.12;99884.31;1712001;83;22291;-63
2022/02/23 01:31:20;;;;;;;8.47;7.67;;;;;;;4.74;64.02;99890.56;1710404;83;20181;-68
2022/02/23 01:33:46;;;;;;;11.18;8.53;;;;;;;4.63;64.12;99889.04;1693560;83;21022;-61
2022/02/23 01:36:12;;;;;;;8.80;7.90;;;;;;;4.59;64.18;99890.35;1701942;83;21109;-62
2022/02/23 01:38:39;;;;;;;;;;;;;;;4.56;64.29;99901.22;1698999;83;21580;-62
2022/02/23 01:41:06;;;;;;;10.40;8.57;;;;;;;4.56;64.32;99903.39;1695906;83;20199;-63
2022/02/23 01:43:32;;;;;;;8.90;8.00;;;;;;;4.54;64.44;99905.84;1706961;83;21083;-62
2022/02/23 01:45:58;;;;;;;9.75;7.97;;;;;;;4.56;64.28;99908.67;1713061;82;21509;-63
2022/02/23 01:48:25;;;;;;;7.50;6.80;;;;;;;4.54;64.25;99908.01;1705860;83;21557;-69
2022/02/23 01:50:52;;;;;;;8.57;7.67;;;;;;;4.49;64.51;99909.78;1705220;83;21011;-62
2022/02/23 01:53:19;;;;;;;14.18;10.72;;;;;;;4.48;64.62;99917.86;1716730;83;21062;-60
2022/02/23 01:55:45;;;;;;;9.70;7.67;;;;;;;4.46;64.97;99917.19;1706847;82;21508;-64
2022/02/23 01:58:12;;;;;;;8.80;7.58;;;;;;;4.52;65.04;99918.37;1697509;83;21003;-62
2022/02/23 02:00:39;;;;;;;8.98;6.50;;;;;;;4.61;64.85;99920.05;1696197;83;21065;-62
2022/02/23 02:03:06;;;;;;;9.27;7.70;;;;;;;4.75;64.85;99927.38;1685881;83;21030;-62
2022/02/23 02:05:32;;;;;;;;;;;;;;;4.80;64.85;99925.09;1696277;83;21479;-61
2022/02/23 02:07:58;;;;;;;9.00;7.83;;;;;;;4.81;65.25;99921.94;1651910;85;20134;-61
2022/02/23 02:10:24;;;;;;;9.08;7.40;;;;;;;4.76;65.57;99926.37;1693972;83;21181;-63
2022/02/23 02:12:50;;;;;;;8.45;7.65;;;;;;;4.78;65.71;99932.81;1698211;82;21057;-61
2022/02/23 02:15:17;;;;;;;8.83;7.97;;;;;;;4.79;66.17;99933.98;1712363;82;20991;-62
2022/02/23 02:17:44;;;;;;;9.60;8.60;;;;;;;4.79;66.51;99935.30;1712734;82;21023;-63
2022/02/23 02:20:12;;;;;;;12.40;8.83;;;;;;;4.77;66.62;99935.95;1694333;82;21085;-62
2022/02/23 02:22:39;;;;;;;8.23;7.30;;;;;;;4.75;66.87;99937.11;1706370;82;21082;-61
2022/02/23 02:25:07;;;;;;;10.77;7.80;;;;;;;4.73;67.40;99931.99;1665552;84;21024;-61
2022/02/23 02:27:33;;;;;;;8.00;6.43;;;;;;;4.74;67.64;99941.55;1711323;82;21487;-62
2022/02/23 02:30:00;;;;;;;7.00;6.22;;;;;;;4.79;67.54;99945.86;1670271;84;22256;-61
2022/02/23 02:32:27;;;;;;;9.60;6.53;;;;;;;4.84;67.59;99949.33;1716677;82;21110;-61
2022/02/23 02:34:53;;;;;;;;;;;;;;;4.78;67.80;99960.04;1726042;82;20988;-61
2022/02/23 02:37:20;;;;;;;10.03;6.87;;;;;;;4.67;67.90;99960.33;1681067;84;20183;-62
2022/02/23 02:39:46;;;;;;;8.83;5.93;;;;;;;4.56;67.70;99967.21;1725934;82;21066;-61
2022/02/23 02:42:12;;;;;;;6.22;5.53;;;;;;;4.50;67.75;99963.39;1711841;82;20999;-61
2022/02/23 02:44:40;;;;;;;8.25;5.78;;;;;;;4.48;67.59;99967.53;1713080;82;21236;-65
2022/02/23 02:47:07;;;;;;;7.80;6.13;;;;;;;4.46;67.01;99968.66;1709078;82;21071;-62
2022/02/23 02:49:33;;;;;;;5.77;4.73;;;;;;;4.44;65.68;99975.41;1662264;84;21143;-63
2022/02/23 02:51:59;;;;;;;5.97;4.05;;;;;;;4.44;64.95;99983.83;1718456;82;21034;-63
2022/02/23 02:54:25;;;;;;;5.62;4.42;;;;;;;4.44;63.79;99980.69;1719947;82;20971;-63
2022/02/23 02:56:51;;;;;;;5.42;4.45;;;;;;;4.44;62.73;99982.50;1711710;82;21026;-63
2022/02/23 02:59:17;;;;;;;7.37;4.95;;;;;;;4.42;62.07;99994.53;1711746;82;21538;-62
2022/02/23 03:01:44;;;;;;;7.30;3.60;;;;;;;4.39;61.67;99991.38;1697185;82;21605;-62
2022/02/23 03:04:10;;;;;;;4.55;3.55;;;;;;;4.34;61.37;99999.77;1707898;82;21672;-62
2022/02/23 03:06:37;;;;;;;4.17;3.07;;;;;;;4.32;61.04;99993.01;1710892;82;21349;-62
2022/02/23 03:09:06;;;;;;;5.30;2.92;;;;;;;4.31;61.00;99992.16;1710493;82;21015;-61
2022/02/23 03:11:32;;;;;;;3.93;3.27;;;;;;;4.33;60.19;99996.78;1709105;82;21090;-62
2022/02/23 03:13:58;;;;;;;;;;;;;;;4.33;59.54;99996.78;1701623;83;20983;-61
2022/02/23 03:16:25;;;;;;;3.47;2.50;;;;;;;4.31;59.12;100000.08;1702688;82;20141;-63
2022/02/23 03:18:51;;;;;;;4.63;3.07;;;;;;;4.25;59.08;100005.98;1711000;83;21047;-61
2022/02/23 03:21:18;;;;;;;5.45;3.62;;;;;;;4.22;59.32;100014.20;1708568;83;21071;-61
2022/02/23 03:23:47;;;;;;;7.13;4.63;;;;;;;4.22;59.50;100003.17;1719503;81;21024;-62
2022/02/23 03:26:14;;;;;;;6.97;4.17;;;;;;;4.24;59.62;100003.03;1723189;81;20999;-61
2022/02/23 03:28:41;;;;;;;5.77;3.43;;;;;;;4.25;59.66;100005.48;1738157;81;21512;-62
2022/02/23 03:31:09;;;;;;;4.70;3.30;;;;;;;4.23;59.12;100004.00;1726036;81;21083;-63
2022/02/23 03:33:43;;;;;;;5.00;3.20;;;;;;;4.22;58.58;100007.60;1733256;81;21001;-61
2022/02/23 03:36:11;;;;;;;5.03;2.57;;;;;;;4.15;58.29;100004.77;1718173;81;21021;-61
2022/02/23 03:38:39;;;;;;;3.57;3.27;;;;;;;4.10;58.24;100012.31;1738946;82;21044;-61
2022/02/23 03:41:06;;;;;;;5.13;3.37;;;;;;;4.08;57.90;100007.19;1732322;81;21053;-63
2022/02/23 03:43:32;;;;;;;6.43;3.07;;;;;;;4.05;58.11;100012.79;1717832;81;21092;-63
2022/02/23 03:45:59;;;;;;;5.00;2.65;;;;;;;4.02;58.12;100017.04;1713512;82;21492;-61
2022/02/23 03:48:26;;;;;;;;;;;;;;;3.98;57.60;100018.34;1733437;81;21009;-62
2022/02/23 03:50:52;;;;;;;2.60;1.80;;;;;;;3.94;56.97;100014.35;1732745;82;20411;-61
2022/02/23 03:53:18;;;;;;;2.15;1.47;;;;;;;3.85;56.98;100016.59;1738922;81;21020;-62
2022/02/23 03:55:44;;;;;;;3.77;1.42;;;;;;;3.82;56.68;100016.37;1718994;81;21121;-60
2022/02/23 03:58:10;;;;;;;4.37;1.50;;;;;;;3.80;56.64;100024.94;1696629;83;21050;-62
2022/02/23 04:00:37;;;;;;;3.37;1.72;;;;;;;3.75;56.63;100025.05;1670451;84;21002;-62
2022/02/23 04:03:03;;;;;;;3.15;1.90;;;;;;;3.73;56.65;100021.74;1692497;82;21465;-62
2022/02/23 04:05:29;;;;;;;1.82;1.10;;;;;;;3.68;56.49;100025.66;1681676;84;21510;-61
2022/02/23 04:07:56;;;;;;;1.60;1.40;;;;;;;3.65;56.47;100030.41;1696129;82;21549;-62
2022/02/23 04:10:23;;;;;;;5.30;1.25;;;;;;;3.60;56.43;100024.75;1705379;82;20966;-62
2022/02/23 04:12:50;;;;;;;2.90;1.40;;;;;;;3.56;56.49;100030.84;1710187;82;21077;-63
2022/02/23 04:15:16;;;;;;;3.33;1.47;;;;;;;3.55;56.60;100037.08;1675555;84;21047;-61
2022/02/23 04:17:43;;;;;;;1.45;1.35;;;;;;;3.50;56.63;100030.95;1699195;84;21014;-61
2022/02/23 04:20:10;;;;;;;4.10;1.50;;;;;;;3.46;56.71;100032.70;1700882;82;21054;-63
2022/02/23 04:22:37;;;;;;;;;;;;;;;3.46;56.95;100041.42;1702505;82;21242;-62
2022/02/23 04:25:05;;;;;;;1.20;1.10;;;;;;;3.43;57.05;100039.11;1647783;86;20130;-61
2022/02/23 04:27:33;;;;;;;1.53;1.07;;;;;;;3.38;57.12;100049.76;1638880;86;21095;-62
2022/02/23 04:29:59;;;;;;;4.03;1.10;;;;;;;3.33;57.30;100052.82;1672528;84;21040;-62
2022/02/23 04:32:26;;;;;;;1.62;1.30;;;;;;;3.34;57.39;100057.63;1661719;85;21719;-63
2022/02/23 04:34:53;;;;;;;2.45;1.90;;;;;;;3.34;57.44;100061.58;1673379;84;21055;-61
2022/02/23 04:37:21;;;;;;;3.20;2.60;;;;;;;3.31;57.49;100064.85;1673926;85;21519;-62
2022/02/23 04:39:47;;;;;;;3.00;2.57;;;;;;;3.33;57.50;100065.99;1663124;85;21091;-64
2022/02/23 04:42:13;;;;;;;4.10;2.42;;;;;;;3.35;58.92;100072.44;1666234;85;21053;-62
2022/02/23 04:44:39;;;;;;;4.58;2.75;;;;;;;3.37;58.64;100073.97;1680118;82;21031;-62
2022/02/23 04:47:06;;;;;;;7.70;2.80;;;;;;;3.41;57.89;100074.47;1663780;85;21092;-62
2022/02/23 04:49:32;;;;;;;7.28;3.00;;;;;;;3.35;57.84;100085.11;1656858;85;21040;-61
2022/02/23 04:51:58;;;;;;;4.53;3.22;;;;;;;3.33;57.70;100081.80;1664954;85;21038;-63
2022/02/23 04:54:24;;;;;;;2.98;2.60;;;;;;;3.29;57.98;100081.76;1661273;85;21073;-61
2022/02/23 04:56:50;;;;;;;6.55;2.90;;;;;;;3.25;58.09;100091.76;1659842;85;21039;-62
2022/02/23 04:59:16;;;;;;;5.53;2.35;;;;;;;3.21;57.89;100095.67;1665232;85;20988;-62
2022/02/23 05:01:42;;;;;;;4.65;3.60;;;;;;;3.14;58.09;100103.81;1660309;85;21120;-62
2022/02/23 05:04:08;;;;;;;4.70;2.80;;;;;;;3.08;58.12;100106.53;1671558;85;21532;-67
2022/02/23 05:06:36;;;;;;;4.77;3.17;;;;;;;3.02;58.43;100112.89;1667125;85;21017;-62
2022/02/23 05:09:03;;;;;;;5.00;2.67;;;;;;;2.97;58.62;100105.90;1665568;85;21031;-65
2022/02/23 05:11:29;;;;;;;3.35;2.67;;;;;;;2.98;58.54;100111.52;1647682;85;21042;-61
2022/02/23 05:13:55;;;;;;;6.33;2.37;;;;;;;3.08;58.42;100116.25;1663607;85;21053;-61
2022/02/23 05:16:23;;;;;;;2.83;2.37;;;;;;;3.27;57.82;100117.46;1663012;85;21507;-62
2022/02/23 05:18:49;;;;;;;3.45;2.62;;;;;;;3.43;57.22;100118.16;1654025;85;20971;-62
2022/02/23 05:21:15;;;;;;;3.98;3.55;;;;;;;3.57;56.68;100120.77;1660827;85;21044;-63
2022/02/23 05:23:41;;;;;;;3.65;1.80;;;;;;;3.60;56.22;100117.84;1651726;85;21071;-61
2022/02/23 05:26:11;;;;;;;1.92;1.55;;;;;;;3.52;56.18;100119.06;1677335;84;21024;-63
2022/02/23 05:28:36;;;;;;;3.20;1.83;;;;;;;3.43;56.04;100123.43;1658153;85;21052;-62
2022/02/23 05:31:03;;;;;;;2.95;2.58;;;;;;;3.48;56.61;100130.41;1667471;85;21040;-61
2022/02/23 05:33:29;;;;;;;5.97;3.95;;;;;;;3.88;56.11;100129.64;1657895;85;21611;-61
2022/02/23 05:35:55;;;;;;;7.25;2.92;;;;;;;4.57;54.98;100129.90;1662309;85;21119;-63
2022/02/23 05:38:23;;;;;;;4.45;2.27;;;;;;;5.38;51.81;100135.28;1664398;85;21119;-62
2022/02/23 05:40:49;;;;;;;7.37;3.03;;;;;;;6.02;50.60;100132.49;1676555;84;21016;-62
2022/02/23 05:43:15;;;;;;;2.90;2.62;;;;;;;6.58;49.24;100123.41;1673829;85;21027;-64
2022/02/23 05:45:41;;;;;;;3.65;2.40;;;;;;;7.08;47.71;100133.38;1663631;84;21031;-64
2022/02/23 05:48:07;;;;;;;3.87;2.80;;;;;;;7.57;46.18;100127.90;1662925;85;20995;-67
2022/02/23 05:50:34;;;;;;;3.92;2.50;;;;;;;8.15;44.78;100132.83;1661895;85;21007;-63
2022/02/23 05:53:00;;;;;;;;;;;;;;;8.62;43.47;100136.30;1662607;85;21178;-63
2022/02/23 05:55:26;;;;;;;5.03;2.30;;;;;;;9.07;42.54;100137.16;1664064;85;20178;-62
2022/02/23 05:57:52;;;;;;;;;;;;;;;9.24;41.20;100143.13;1676232;84;21114;-61
2022/02/23 06:00:18;;;;;;;7.33;2.87;;;;;;;9.50;41.02;100144.78;1665656;85;20163;-61
2022/02/23 06:02:45;;;;;;;;;;;;;;;9.71;40.55;100141.86;1673421;85;21639;-63
2022/02/23 06:05:11;;;;;;;6.00;3.50;;;;;;;9.76;40.00;100150.11;1657788;85;20193;-67
2022/02/23 06:07:37;;;;;;;3.87;2.50;;;;;;;9.72;39.46;100151.50;1680915;85;21070;-66
2022/02/23 06:10:05;;;;;;;;;;;;;;;9.80;39.14;100152.72;1681983;84;21035;-64
2022/02/23 06:12:31;;;;;;;5.13;2.13;;;;;;;10.19;38.69;100150.64;1657448;85;20122;-65
2022/02/23 06:14:58;;;;;;;3.52;2.12;;;;;;;10.57;37.67;100156.56;1690864;84;21019;-65
2022/02/23 06:17:25;;;;;;;5.90;2.98;;;;;;;10.77;36.92;100159.88;1704263;84;21159;-63
2022/02/23 06:19:52;;;;;;;5.70;2.77;;;;;;;10.72;36.63;100164.47;1677598;84;21039;-65
2022/02/23 06:22:18;;;;;;;6.80;3.52;;;;;;;10.52;36.78;100164.30;1681508;84;21139;-65
2022/02/23 06:24:45;;;;;;;5.55;3.25;;;;;;;9.90;37.35;100171.05;1676136;84;21111;-62
2022/02/23 06:27:13;;;;;;;7.07;4.20;;;;;;;9.21;38.32;100182.04;1682934;84;21497;-62
2022/02/23 06:29:41;;;;;;;6.00;4.17;;;;;;;8.25;39.70;100190.52;1663924;84;21101;-64
2022/02/23 06:32:08;;;;;;;6.60;3.80;;;;;;;7.26;41.42;100180.89;1661472;85;21144;-64
2022/02/23 06:34:36;;;;;;;6.30;3.20;;;;;;;6.74;43.12;100189.27;1661911;85;21535;-65
2022/02/23 06:37:06;;;;;;;9.27;4.33;;;;;;;6.29;44.10;100193.23;1657392;85;21031;-63
2022/02/23 06:39:37;;;;;;;4.87;3.30;;;;;;;5.91;45.48;100196.77;1668479;85;20988;-62
2022/02/23 06:42:06;;;;;;;7.00;4.00;;;;;;;5.56;46.61;100195.50;1662385;85;21106;-64
2022/02/23 06:44:32;;;;;;;11.00;4.57;;;;;;;5.35;46.58;100199.87;1660213;85;21507;-63
2022/02/23 06:47:00;;;;;;;7.85;4.85;;;;;;;5.07;47.15;100200.55;1656479;85;20992;-63
2022/02/23 06:49:30;;;;;;;10.57;5.63;;;;;;;4.85;47.68;100204.02;1656282;85;21041;-63
2022/02/23 06:51:59;;;;;;;6.20;4.00;;;;;;;4.71;47.99;100200.64;1649365;85;21095;-64
2022/02/23 06:54:28;;;;;;;5.03;3.80;;;;;;;4.62;48.07;100205.02;1648566;85;21163;-65
2022/02/23 06:56:55;;;;;;;5.50;2.80;;;;;;;4.61;47.92;100204.66;1662091;85;21006;-65
2022/02/23 06:59:21;;;;;;;4.77;3.77;;;;;;;4.63;47.85;100203.20;1665046;85;21034;-64
2022/02/23 07:01:48;;;;;;;6.03;4.15;;;;;;;4.57;47.74;100211.73;1661054;85;21020;-64
2022/02/23 07:04:15;;;;;;;6.15;3.37;;;;;;;4.53;47.78;100219.13;1665080;85;21052;-68
2022/02/23 07:06:42;;;;;;;;;;;;;;;4.49;48.33;100215.95;1667212;85;21066;-63
2022/02/23 07:09:09;;;;;;;4.55;2.40;;;;;;;4.51;48.00;100215.81;1672456;85;20137;-62
2022/02/23 07:11:39;;;;;;;5.50;2.37;;;;;;;4.47;48.12;100217.92;1668049;85;21088;-65
2022/02/23 07:14:08;;;;;;;3.63;2.57;;;;;;;4.45;47.43;100222.52;1626500;87;21554;-64
2022/02/23 07:16:35;;;;;;;4.70;2.43;;;;;;;4.43;47.79;100225.81;1647716;85;21027;-63
2022/02/23 07:35:28;;;;;;;3.53;2.50;;;;;;;5.70;43.90;100236.87;1682798;83;22234;-63
2022/02/23 07:38:04;;;;;;;2.60;1.77;;;;;;;5.64;43.55;100235.70;1685632;83;21112;-62
2022/02/23 07:40:27;;;;;;;5.50;1.87;;;;;;;5.44;44.17;100239.91;1707126;82;21182;-61
2022/02/23 07:42:54;;;;;;;3.83;1.37;;;;;;;5.39;44.74;100240.86;1710612;82;21002;-62
2022/02/23 07:45:20;;;;;;;3.53;1.50;;;;;;;5.41;44.21;100246.82;1688844;83;21079;-65
2022/02/23 07:47:47;;;;;;;3.00;2.47;;;;;;;5.43;44.28;100251.95;1685781;84;21169;-65
2022/02/23 07:50:16;;;;;;;2.12;1.92;;;;;;;5.51;44.07;100251.17;1690651;84;21470;-63
2022/02/23 07:52:42;;;;;;;3.33;1.97;;;;;;;5.54;43.60;100253.01;1687515;83;21172;-67
2022/02/23 07:55:09;;;;;;;4.20;1.30;;;;;;;5.55;43.56;100249.36;1697534;82;21568;-65
2022/02/23 07:57:35;;;;;;;;;;;;;;;5.54;43.24;100256.12;1704875;82;21628;-68
2022/02/23 08:00:04;;;;;;;2.03;1.50;;;;;;;5.45;43.22;100249.98;1689725;84;20485;-63
2022/02/23 08:02:32;;;;;;;2.10;0.77;;;;;;;5.29;43.16;100255.98;1689621;84;21087;-63
2022/02/23 08:04:59;;;;;;;1.60;1.50;;;;;;;5.12;43.23;100256.38;1703314;82;21096;-62
2022/02/23 08:07:25;;;;;;;4.03;2.02;;;;;;;5.06;43.72;100260.46;1712744;82;21024;-62
2022/02/23 08:09:51;;;;;;;6.28;1.45;;;;;;;5.02;44.01;100255.66;1664975;84;20989;-65
2022/02/23 08:12:17;;;;;;;1.27;1.17;;;;;;;5.01;44.09;100256.63;1716491;81;21012;-63
2022/02/23 08:14:44;;;;;;;1.32;1.25;;;;;;;4.94;43.22;100252.97;1672664;84;21085;-66
2022/02/23 08:19:55;;;;;;;8.93;4.60;;;;;;;4.84;44.14;100256.52;1659098;85;21017;-64
2022/02/23 08:22:28;;;;;;;8.98;5.78;;;;;;;4.87;44.21;100250.91;1664855;83;21099;-64
2022/02/23 08:24:52;;;;;;;11.10;4.70;;;;;;;4.82;43.18;100262.45;1658998;84;21057;-69
2022/02/23 08:27:20;;;;;;;7.53;4.70;;;;;;;4.37;43.67;100206.63;1680849;84;21151;-62
2022/02/23 08:29:48;;;;;;;23.53;10.63;;;;;;;4.59;44.07;100262.56;1670583;84;20995;-65
2022/02/23 08:32:18;;;;;;;39.70;23.20;;;;;;;4.54;44.24;100263.50;1664012;84;21061;-65
2022/02/23 08:34:47;;;;;;;29.80;16.17;;;;;;;4.53;44.31;100260.04;1693306;84;21077;-63
2022/02/23 08:37:15;;;;;;;11.67;7.67;;;;;;;4.57;44.55;100263.21;1671693;84;21484;-63
2022/02/23 08:39:42;;;;;;;9.27;6.07;;;;;;;4.66;44.62;100253.06;1667904;84;21136;-65
2022/02/23 08:42:13;;;;;;;13.23;5.97;;;;;;;4.72;44.43;100256.41;1659458;84;21093;-64
2022/02/23 08:44:40;;;;;;;6.67;2.77;;;;;;;4.83;44.72;100250.89;1680769;84;21046;-65
2022/02/23 08:47:09;;;;;;;;;;;;;;;4.97;43.99;100249.53;1650471;85;21547;-65
2022/02/23 08:49:36;;;;;;;6.17;3.53;;;;;;;5.02;43.66;100254.33;1617166;87;20106;-62
2022/02/23 08:52:02;;;;;;;3.62;3.08;;;;;;;5.00;44.02;100241.77;1646441;85;21551;-65
2022/02/23 08:54:28;;;;;;;;;;;;;;;5.05;43.70;100249.58;1648970;86;21074;-64
2022/02/23 08:56:55;;;;;;;3.47;2.77;;;;;;;5.11;43.71;100245.98;1662768;84;20159;-65
2022/02/23 08:59:21;;;;;;;2.30;1.72;;;;;;;5.09;43.54;100252.73;1663920;84;21131;-67
2022/02/23 09:01:48;;;;;;;3.73;2.77;;;;;;;5.13;43.28;100247.48;1637661;85;20998;-65
2022/02/23 09:04:14;;;;;;;4.60;2.70;;;;;;;5.13;43.12;100251.44;1665016;84;21523;-66
2022/02/23 09:06:41;;;;;;;3.95;3.15;;;;;;;5.04;43.22;100250.55;1665386;84;21107;-65
2022/02/23 09:09:13;;;;;;;13.18;5.37;;;;;;;4.92;43.50;100245.69;1699078;82;21036;-66
2022/02/23 09:11:44;;;;;;;9.20;5.57;;;;;;;4.84;43.93;100251.24;1680586;83;21091;-65
2022/02/23 09:14:11;;;;;;;14.63;7.47;;;;;;;4.82;44.05;100248.39;1677752;83;21520;-65
2022/02/23 09:16:38;;;;;;;18.00;7.93;;;;;;;4.85;44.13;100245.46;1683025;83;21188;-66
2022/02/23 09:19:04;;;;;;;8.85;5.28;;;;;;;4.95;43.92;100244.04;1685681;83;21641;-67
2022/02/23 09:21:32;;;;;;;12.03;4.77;;;;;;;5.03;43.75;100240.98;1685893;83;21116;-66
2022/02/23 09:24:02;;;;;;;4.07;3.33;;;;;;;5.11;43.73;100246.80;1666268;83;21055;-67
2022/02/23 09:26:29;;;;;;;7.90;4.20;;;;;;;5.22;43.58;100243.09;1669372;84;21134;-66
2022/02/23 09:28:57;;;;;;;3.73;2.87;;;;;;;5.29;43.24;100244.09;1670724;84;21562;-69
2022/02/23 09:31:24;;;;;;;;;;;;;;;5.34;43.30;100241.00;1669335;84;21535;-65
2022/02/23 09:33:54;;;;;;;3.77;3.33;;;;;;;5.43;43.31;100247.99;1670920;84;20105;-66
2022/02/23 09:36:21;;;;;;;4.10;2.90;;;;;;;5.47;42.77;100250.66;1666498;84;21549;-65
2022/02/23 09:38:51;;;;;;;6.03;4.43;;;;;;;5.52;42.21;100247.05;1666142;84;21505;-65
2022/02/23 09:41:21;;;;;;;5.30;4.00;;;;;;;5.48;42.41;100247.00;1674256;84;21034;-66
2022/02/23 09:43:52;;;;;;;5.40;3.37;;;;;;;5.43;42.68;100251.95;1666579;84;21055;-66
2022/02/23 09:46:20;;;;;;;3.87;3.30;;;;;;;5.37;42.73;100252.09;1674967;84;21461;-64
2022/02/23 09:48:48;;;;;;;4.80;3.23;;;;;;;5.35;42.82;100243.96;1681309;84;21069;-66
2022/02/23 09:51:14;;;;;;;5.00;3.70;;;;;;;5.35;42.89;100250.56;1679573;84;21087;-66
2022/02/23 09:53:49;;;;;;;3.55;3.08;;;;;;;5.35;42.74;100251.89;1680393;84;21548;-66
2022/02/23 09:56:17;;;;;;;3.70;3.37;;;;;;;5.41;42.50;100249.47;1681838;84;21009;-67
2022/02/23 09:58:44;;;;;;;3.60;3.30;;;;;;;5.51;42.70;100255.95;1667264;84;21001;-66
2022/02/23 10:01:11;;;;;;;;;;;;;;;5.61;42.20;100243.46;1680612;84;21082;-64
2022/02/23 10:03:38;;;;;;;3.47;2.90;;;;;;;5.73;42.25;100244.50;1644249;85;20526;-64
2022/02/23 10:06:05;;;;;;;3.13;2.90;;;;;;;5.75;41.71;100249.95;1675503;84;21144;-66
2022/02/23 10:08:33;;;;;;;3.67;2.40;;;;;;;5.76;41.64;100241.02;1677120;84;21061;-65
2022/02/23 10:11:01;;;;;;;3.53;2.93;;;;;;;5.76;41.91;100250.78;1673593;84;21139;-66
2022/02/23 10:13:29;;;;;;;6.47;3.63;;;;;;;5.79;41.97;100247.33;1675980;84;21126;-65
2022/02/23 10:15:58;;;;;;;5.50;3.07;;;;;;;5.89;41.97;100240.58;1676369;84;21047;-63
2022/02/23 10:18:28;;;;;;;6.03;3.87;;;;;;;5.99;41.66;100248.41;1685265;84;20992;-64
2022/02/23 10:20:54;;;;;;;6.13;3.40;;;;;;;6.07;41.61;100252.42;1680319;84;21071;-66
2022/02/23 10:23:23;;;;;;;3.25;2.87;;;;;;;6.15;41.31;100247.64;1679223;84;21059;-66
2022/02/23 10:25:58;;;;;;;4.50;3.60;;;;;;;6.11;40.79;100241.02;1677373;84;21367;-65
2022/02/23 10:28:30;;;;;;;3.83;3.07;;;;;;;6.02;41.43;100240.98;1683490;84;21534;-66
2022/02/23 10:31:04;;;;;;;4.00;3.57;;;;;;;6.01;41.68;100241.98;1679027;84;21035;-65
2022/02/23 10:33:34;;;;;;;4.90;3.33;;;;;;;5.98;41.31;100243.61;1666364;81;21131;-65
2022/02/23 10:36:11;;;;;;;3.70;3.27;;;;;;;5.94;41.53;100238.28;1610266;87;21078;-66
2022/02/23 10:38:42;;;;;;;4.75;3.85;;;;;;;5.99;41.66;100236.03;1595389;88;21045;-65
2022/02/23 10:41:24;;;;;;;4.03;3.00;;;;;;;6.08;41.40;100237.36;1600585;88;21092;-67
2022/02/23 10:43:52;;;;;;;3.10;2.80;;;;;;;6.10;40.46;100238.03;1633563;85;21138;-67
2022/02/23 10:46:21;;;;;;;3.57;2.73;;;;;;;6.02;40.50;100247.59;1650933;84;21109;-66
2022/02/23 10:48:55;;;;;;;3.20;2.90;;;;;;;5.97;40.16;100243.77;1625820;85;21741;-66
2022/02/23 10:51:32;;;;;;;4.27;3.00;;;;;;;5.83;40.59;100240.72;1643124;85;21617;-65
2022/02/23 10:54:13;;;;;;;3.00;2.70;;;;;;;5.81;40.76;100241.88;1642696;85;21071;-66
2022/02/23 10:56:43;;;;;;;5.90;3.07;;;;;;;5.84;41.13;100241.07;1666162;84;21073;-66
2022/02/23 10:59:15;;;;;;;3.07;2.83;;;;;;;5.87;40.89;100237.77;1661909;84;21069;-65
2022/02/23 11:01:44;;;;;;;2.57;2.37;;;;;;;5.81;40.69;100236.09;1657966;84;21064;-66
2022/02/23 11:04:11;;;;;;;7.80;2.70;;;;;;;5.80;40.35;100240.20;1635087;85;21048;-65
2022/02/23 11:06:38;;;;;;;;;;;;;;;5.80;40.27;100239.73;1655768;85;21562;-65
2022/02/23 11:09:08;;;;;;;5.78;2.70;;;;;;;5.83;40.49;100228.81;1654051;85;20159;-66
2022/02/23 11:11:35;;;;;;;5.47;2.57;;;;;;;5.87;40.77;100229.33;1647574;84;21016;-67
2022/02/23 11:14:03;;;;;;;7.27;2.97;;;;;;;5.96;40.62;100231.05;1671900;84;21074;-66
2022/02/23 11:16:33;;;;;;;3.53;3.10;;;;;;;6.03;40.87;100229.92;1671051;84;21041;-67
2022/02/23 11:19:04;;;;;;;5.70;3.03;;;;;;;6.06;40.47;100236.19;1671792;84;22076;-64
2022/02/23 11:21:36;;;;;;;3.20;2.50;;;;;;;6.04;40.92;100232.38;1672764;84;20993;-66
2022/02/23 11:24:07;;;;;;;6.47;2.80;;;;;;;6.07;40.82;100231.75;1666132;83;21631;-64
2022/02/23 11:26:37;;;;;;;3.70;2.73;;;;;;;6.02;40.18;100239.66;1674117;84;21001;-66
2022/02/23 11:29:31;;;;;;;5.67;3.33;;;;;;;5.95;40.63;100236.02;1669910;84;21033;-66
2022/02/23 11:32:01;;;;;;;4.37;3.67;;;;;;;5.97;40.74;100232.72;1672519;84;21109;-65
2022/02/23 11:34:28;;;;;;;3.53;2.63;;;;;;;5.97;40.64;100231.39;1672248;81;21092;-65
2022/02/23 11:36:54;;;;;;;;;;;;;;;5.97;40.15;100227.89;1674801;84;21574;-65
2022/02/23 11:39:26;;;;;;;2.60;1.98;;;;;;;6.01;39.96;100232.72;1673526;84;20136;-67
2022/02/23 11:41:59;;;;;;;2.10;1.90;;;;;;;6.03;39.87;100228.59;1671757;84;21174;-65
2022/02/23 11:44:38;;;;;;;3.57;1.93;;;;;;;6.10;39.92;100222.97;1671201;82;21060;-66
2022/02/23 11:51:06;;;;;;;3.53;2.07;;;;;;;6.20;39.61;100223.66;1657065;84;21109;-66
2022/02/23 11:53:40;;;;;;;6.67;3.70;;;;;;;6.22;39.83;100226.16;1673334;84;21029;-67
2022/02/23 11:56:49;;;;;;;5.57;4.67;;;;;;;6.26;39.92;100220.86;1670317;83;21108;-67
2022/02/23 12:03:22;;;;;;;1.70;1.50;;;;;;;6.28;39.18;100216.73;1618603;87;21133;-68
2022/02/23 12:05:59;;;;;;;4.57;1.87;;;;;;;6.26;39.31;100218.22;1664526;84;21026;-70
2022/02/23 12:08:47;;;;;;;2.55;2.05;;;;;;;6.32;38.96;100221.53;1660821;84;21136;-72